Terminal Aerodrome Forecast
Issued by NWS

Home | Current Version | Previous Version | Text Only | Print | Product List | Glossary On
Versions: 1 2 3 4 5 6 7 8 9 10 11 12 13 14 15 16 17 18 19
000
FTUS43 KABR 021700
TAFATY
TAF
KATY 021725Z 0218/0318 23013G19KT P6SM FEW250
     FM030100 17008KT P6SM FEW250
     FM031600 18012KT P6SM SCT030=

USA.gov is the U.S. government's official web portal to all federal, state and local government web resources and services.